Time;durP1;ratioP1;P1;durP2;ratioP2;P2;SDS_P1;SDS_P2;PMS_P1;PMS_P2;Temp;Humidity;BMP_temperature;BMP_pressure;BME280_temperature;BME280_humidity;BME280_pressure;Samples;Min_cycle;Max_cycle;Signal;HPM_P1;HPM_P2
2021/03/27 00:01:49;;;;;;;9.10;7.60;;;;;;;12.53;51.34;99924.06;10340366;28;20153;-73
2021/03/27 00:07:00;;;;;;;8.30;7.45;;;;;;;12.46;51.21;99917.63;10334974;28;20053;-72
2021/03/27 00:12:08;;;;;;;7.97;7.25;;;;;;;12.50;51.41;99909.19;10329626;28;20092;-72
2021/03/27 00:17:16;;;;;;;8.50;7.30;;;;;;;12.38;51.66;99905.88;10338536;28;20116;-73
2021/03/27 00:22:25;;;;;;;8.38;7.22;;;;;;;12.38;51.77;99897.00;10334040;28;20416;-73
2021/03/27 00:27:46;;;;;;;7.47;6.68;;;;;;;12.61;51.59;99899.31;10337394;28;20077;-73
2021/03/27 00:32:51;;;;;;;7.13;6.47;;;;;;;12.77;51.54;99904.06;10335559;28;20506;-71
2021/03/27 00:37:53;;;;;;;9.50;7.10;;;;;;;12.73;51.02;99882.16;10328135;28;20052;-73
2021/03/27 00:43:10;;;;;;;9.65;7.00;;;;;;;12.68;51.49;99885.22;10346834;28;20148;-73
2021/03/27 00:48:22;;;;;;;7.55;6.85;;;;;;;12.61;51.55;99868.13;10339288;28;20053;-73
2021/03/27 00:53:34;;;;;;;8.60;6.00;;;;;;;12.73;51.05;99874.13;10333263;28;20418;-73
2021/03/27 00:58:42;;;;;;;7.07;6.43;;;;;;;12.71;51.31;99874.25;10329052;28;20046;-72
2021/03/27 01:03:58;;;;;;;6.38;5.78;;;;;;;12.75;51.21;99850.78;10343724;28;20045;-72
2021/03/27 01:09:01;;;;;;;9.02;6.75;;;;;;;12.86;51.28;99855.09;10334858;28;20057;-73
2021/03/27 01:14:08;;;;;;;7.53;6.60;;;;;;;12.82;51.03;99853.69;10318382;28;20155;-74
2021/03/27 01:19:16;;;;;;;9.07;6.95;;;;;;;12.77;51.20;99839.97;10353157;28;20121;-75
2021/03/27 01:24:23;;;;;;;8.45;6.82;;;;;;;12.85;51.20;99853.41;10353582;28;20053;-73
2021/03/27 01:29:50;;;;;;;8.20;7.25;;;;;;;12.85;51.31;99864.09;10354094;28;20049;-74
2021/03/27 01:35:06;;;;;;;9.95;7.50;;;;;;;12.83;50.96;99866.91;10360283;28;20307;-73
2021/03/27 01:40:27;;;;;;;7.85;7.15;;;;;;;12.73;51.49;99866.97;10331100;28;20050;-73
2021/03/27 01:45:52;;;;;;;8.85;7.57;;;;;;;12.54;51.93;99867.88;10343708;28;20120;-73
2021/03/27 01:51:29;;;;;;;9.60;7.70;;;;;;;12.65;51.65;99858.00;10330894;28;20046;-72
2021/03/27 01:56:45;;;;;;;9.60;7.57;;;;;;;12.63;52.19;99876.84;10353487;28;20046;-73
2021/03/27 02:01:56;;;;;;;9.15;7.75;;;;;;;12.53;52.60;99876.84;10349905;28;20046;-74
2021/03/27 02:07:18;;;;;;;9.65;7.97;;;;;;;12.61;53.91;99873.47;10344135;28;20046;-74
2021/03/27 02:12:49;;;;;;;8.95;7.93;;;;;;;12.50;55.06;99857.63;10343253;28;20416;-73
2021/03/27 02:17:55;;;;;;;8.90;7.63;;;;;;;12.42;55.43;99868.19;10360698;28;20065;-74
2021/03/27 02:23:18;;;;;;;8.27;7.15;;;;;;;12.30;56.34;99864.84;10372817;28;20065;-72
2021/03/27 02:28:39;;;;;;;7.22;6.47;;;;;;;12.21;56.20;99853.22;10342076;28;20053;-74
2021/03/27 02:33:46;;;;;;;7.55;6.80;;;;;;;12.26;56.46;99866.94;10346779;28;20126;-73
2021/03/27 02:39:06;;;;;;;6.82;5.65;;;;;;;12.27;56.10;99870.47;10323741;28;20045;-73
2021/03/27 02:44:51;;;;;;;5.45;4.38;;;;;;;12.09;56.17;99875.72;10349104;28;20042;-73
2021/03/27 02:50:17;;;;;;;6.57;4.47;;;;;;;12.02;55.70;99857.63;10319371;28;20069;-73
2021/03/27 02:55:24;;;;;;;5.28;3.85;;;;;;;12.09;55.68;99868.53;10334448;28;20543;-72
2021/03/27 03:00:39;;;;;;;4.50;3.58;;;;;;;12.09;55.68;99889.06;10345069;28;20057;-73
2021/03/27 03:05:46;;;;;;;5.55;4.20;;;;;;;12.06;55.98;99910.69;10333837;28;20089;-73
2021/03/27 03:10:57;;;;;;;5.43;3.58;;;;;;;12.11;56.58;99935.09;10337042;28;20066;-72
2021/03/27 03:16:01;;;;;;;4.95;3.92;;;;;;;11.87;57.46;99944.31;10345641;28;20049;-72
2021/03/27 03:21:17;;;;;;;8.07;5.20;;;;;;;11.68;57.76;99977.16;10349395;28;20069;-72
2021/03/27 03:26:27;;;;;;;5.18;3.85;;;;;;;11.59;58.22;99981.50;10343499;28;20569;-73
2021/03/27 03:31:37;;;;;;;5.47;4.22;;;;;;;11.60;58.56;100007.16;10332576;28;20086;-72
2021/03/27 03:37:02;;;;;;;5.50;2.85;;;;;;;11.52;58.29;100040.81;10339756;28;20046;-73
2021/03/27 03:42:45;;;;;;;2.20;1.42;;;;;;;10.79;57.88;100047.00;10327317;28;20136;-74
2021/03/27 03:48:14;;;;;;;0.85;0.40;;;;;;;10.23;57.08;100058.75;10327930;28;20216;-72
2021/03/27 03:53:25;;;;;;;1.45;0.40;;;;;;;10.13;55.59;100108.34;10339353;28;20157;-76
2021/03/27 03:58:37;;;;;;;0.30;0.25;;;;;;;10.11;53.77;100129.72;10334512;28;20493;-74
2021/03/27 04:03:50;;;;;;;0.20;0.10;;;;;;;9.96;53.08;100128.31;10340625;28;20062;-71
2021/03/27 04:09:13;;;;;;;0.20;0.10;;;;;;;9.97;52.55;100153.91;10330326;28;20096;-73
2021/03/27 04:14:30;;;;;;;0.30;0.10;;;;;;;9.93;52.36;100177.25;10341143;28;20074;-72
2021/03/27 04:19:37;;;;;;;0.88;0.10;;;;;;;10.04;51.53;100181.72;10345605;28;20506;-72
2021/03/27 04:25:01;;;;;;;0.50;0.10;;;;;;;9.85;51.27;100203.63;10345779;28;20077;-73
2021/03/27 04:30:10;;;;;;;0.22;0.10;;;;;;;9.63;51.87;100215.06;10322869;28;20129;-73
2021/03/27 04:35:13;;;;;;;0.00;0.00;;;;;;;9.43;52.77;100229.84;10344163;28;20058;-73
2021/03/27 04:40:53;;;;;;;0.50;0.10;;;;;;;9.45;52.52;100236.75;10330059;28;20318;-71
2021/03/27 04:46:06;;;;;;;0.50;0.20;;;;;;;9.41;52.58;100253.88;10273166;28;20129;-73
2021/03/27 04:51:07;;;;;;;1.30;0.10;;;;;;;9.35;52.79;100291.53;10350125;28;20096;-71
2021/03/27 04:56:24;;;;;;;0.68;0.20;;;;;;;9.24;52.96;100304.78;10345843;28;20117;-73
2021/03/27 05:01:34;;;;;;;0.90;0.10;;;;;;;9.20;53.23;100330.72;10334677;28;20575;-73
2021/03/27 05:06:40;;;;;;;0.43;0.10;;;;;;;8.92;53.81;100342.53;10323270;28;20511;-72
2021/03/27 05:11:59;;;;;;;1.00;0.10;;;;;;;8.68;53.59;100330.06;10338708;28;20038;-71
2021/03/27 05:17:16;;;;;;;0.60;0.30;;;;;;;8.67;53.49;100376.09;10323242;28;20124;-73
2021/03/27 05:22:31;;;;;;;0.98;0.70;;;;;;;8.74;53.10;100403.91;10345899;28;20503;-73
2021/03/27 05:27:59;;;;;;;1.70;0.20;;;;;;;8.75;52.43;100418.03;10320530;28;20050;-73
2021/03/27 05:33:26;;;;;;;0.40;0.20;;;;;;;8.73;52.60;100426.09;10340065;28;20045;-72
2021/03/27 05:38:42;;;;;;;0.85;0.20;;;;;;;8.80;52.78;100439.81;10345192;28;20050;-72
2021/03/27 05:44:01;;;;;;;0.90;0.25;;;;;;;8.91;52.70;100441.69;10345802;28;20543;-73
2021/03/27 05:49:28;;;;;;;0.57;0.10;;;;;;;8.85;52.59;100458.91;10354197;28;20100;-71
2021/03/27 05:54:44;;;;;;;0.35;0.20;;;;;;;8.61;53.27;100480.03;10349438;28;20605;-72
2021/03/27 06:00:16;;;;;;;0.40;0.10;;;;;;;8.48;53.83;100486.19;10342060;28;20476;-71
2021/03/27 06:06:04;;;;;;;0.95;0.30;;;;;;;8.62;53.42;100502.97;10330580;28;20092;-72
2021/03/27 06:11:26;;;;;;;1.40;0.40;;;;;;;8.80;53.72;100495.56;10354526;28;20053;-72
2021/03/27 06:16:56;;;;;;;1.65;0.38;;;;;;;8.92;53.80;100515.09;10316103;28;20074;-70
2021/03/27 06:22:18;;;;;;;1.27;0.28;;;;;;;9.00;53.20;100515.38;10338785;28;20473;-76
2021/03/27 06:27:34;;;;;;;1.10;0.20;;;;;;;8.74;53.75;100544.59;10348675;28;20046;-75
2021/03/27 06:33:00;;;;;;;1.67;0.20;;;;;;;8.69;53.14;100556.47;10357009;28;20069;-73
2021/03/27 06:38:20;;;;;;;0.43;0.28;;;;;;;8.96;52.07;100559.03;10339210;28;20050;-72
2021/03/27 06:43:28;;;;;;;2.03;0.30;;;;;;;9.04;50.73;100567.34;10335050;28;20041;-68
2021/03/27 06:48:47;;;;;;;0.80;0.40;;;;;;;9.18;50.93;100583.16;10336614;28;20164;-70
2021/03/27 06:54:07;;;;;;;2.50;0.40;;;;;;;9.20;50.77;100599.84;10347382;28;20272;-71
2021/03/27 06:59:29;;;;;;;1.25;0.30;;;;;;;8.90;51.67;100580.69;10346832;28;20518;-71
2021/03/27 07:04:59;;;;;;;2.17;0.70;;;;;;;9.02;50.56;100591.34;10351733;28;20128;-71
2021/03/27 07:10:37;;;;;;;3.00;0.90;;;;;;;9.17;48.69;100597.41;10334445;28;20060;-71
2021/03/27 07:15:40;;;;;;;2.33;0.68;;;;;;;9.44;47.74;100587.59;10352054;28;20115;-70
2021/03/27 07:20:41;;;;;;;2.38;0.75;;;;;;;9.40;48.23;100581.66;10351476;28;20045;-71
2021/03/27 07:25:48;;;;;;;2.63;0.80;;;;;;;9.59;47.55;100597.13;10347374;28;20468;-68
2021/03/27 07:31:15;;;;;;;2.78;0.73;;;;;;;9.47;47.09;100600.66;10335422;28;20050;-72
2021/03/27 07:36:37;;;;;;;6.60;1.08;;;;;;;9.53;46.60;100608.22;10328154;28;20504;-73
2021/03/27 07:42:10;;;;;;;1.85;0.95;;;;;;;9.40;46.26;100629.50;10342526;28;20154;-68
2021/03/27 07:47:39;;;;;;;5.40;1.10;;;;;;;8.95;46.46;100632.53;10342162;28;20089;-71
2021/03/27 07:53:03;;;;;;;4.00;1.10;;;;;;;8.74;46.89;100626.88;10352584;28;20139;-71
2021/03/27 07:58:42;;;;;;;1.88;1.15;;;;;;;9.04;46.50;100633.72;10327706;28;20756;-71
2021/03/27 08:03:55;;;;;;;2.88;0.93;;;;;;;9.27;46.20;100623.31;10343635;28;20073;-72
2021/03/27 08:09:14;;;;;;;3.83;1.33;;;;;;;9.41;45.26;100631.16;10350106;28;20541;-73
2021/03/27 08:14:37;;;;;;;5.28;1.23;;;;;;;9.33;44.86;100644.16;10337710;28;20460;-74
2021/03/27 08:20:09;;;;;;;3.67;0.65;;;;;;;9.15;44.06;100636.47;10333977;28;20499;-72
2021/03/27 08:25:26;;;;;;;2.92;0.82;;;;;;;9.29;44.55;100658.59;10353772;28;20120;-72
2021/03/27 08:30:56;;;;;;;4.93;0.88;;;;;;;9.17;44.50;100653.19;10344414;28;20133;-73
2021/03/27 08:36:37;;;;;;;1.77;1.02;;;;;;;9.26;44.93;100653.50;10315571;28;20127;-71
2021/03/27 08:42:00;;;;;;;4.90;1.00;;;;;;;9.32;44.58;100671.66;10345957;28;20053;-70
2021/03/27 08:47:08;;;;;;;3.63;0.98;;;;;;;9.32;44.65;100679.63;10342902;28;20050;-72
2021/03/27 08:52:28;;;;;;;3.00;0.95;;;;;;;9.54;44.12;100663.91;10346961;28;20195;-74
2021/03/27 08:57:52;;;;;;;2.40;0.80;;;;;;;9.80;43.79;100679.00;10347472;28;20046;-70
2021/03/27 09:03:24;;;;;;;6.00;1.08;;;;;;;9.58;43.79;100682.28;10324736;28;20108;-74
2021/03/27 09:08:47;;;;;;;5.35;1.00;;;;;;;9.39;44.27;100680.91;10333348;28;20463;-73
2021/03/27 09:14:12;;;;;;;4.80;1.40;;;;;;;9.46;44.17;100686.69;10334998;28;20049;-75
2021/03/27 09:19:22;;;;;;;;;;;;;;;9.59;44.25;100684.00;10360612;28;20073;-74
2021/03/27 09:24:23;;;;;;;8.73;1.20;;;;;;;9.83;44.29;100690.28;10352353;28;20384;-73
2021/03/27 09:29:53;;;;;;;3.42;1.00;;;;;;;10.16;43.10;100675.50;10351869;28;20515;-74
2021/03/27 09:35:19;;;;;;;2.28;0.63;;;;;;;11.02;42.09;100702.13;10352336;28;20057;-74
2021/03/27 09:40:26;;;;;;;3.95;1.02;;;;;;;10.95;42.30;100715.91;10349558;28;20058;-75
2021/03/27 09:45:57;;;;;;;3.67;1.20;;;;;;;10.45;43.19;100709.84;10355457;28;20069;-71
2021/03/27 09:51:31;;;;;;;6.10;1.33;;;;;;;10.67;42.29;100726.91;10346180;28;20146;-70
2021/03/27 09:56:43;;;;;;;3.80;0.88;;;;;;;10.80;42.04;100714.41;10357600;28;20107;-70
2021/03/27 10:02:16;;;;;;;2.65;1.00;;;;;;;11.36;41.25;100715.56;10335902;28;20160;-74
2021/03/27 10:07:26;;;;;;;3.38;0.85;;;;;;;11.13;40.73;100727.00;10333931;28;20042;-74
2021/03/27 10:12:45;;;;;;;4.65;1.23;;;;;;;11.39;40.30;100723.34;10357697;28;20073;-74
2021/03/27 10:17:53;;;;;;;3.40;1.13;;;;;;;10.95;41.73;100721.25;10351413;28;20076;-74
2021/03/27 10:23:09;;;;;;;6.80;1.00;;;;;;;12.55;40.96;100736.50;10349786;28;20204;-74
2021/03/27 10:28:20;;;;;;;4.43;1.17;;;;;;;17.67;31.33;100751.47;10331551;28;20101;-75
2021/03/27 10:33:40;;;;;;;4.95;0.50;;;;;;;16.58;33.07;100768.56;10341711;28;20096;-75
2021/03/27 10:38:47;;;;;;;2.65;0.70;;;;;;;14.85;36.65;100781.19;10348565;28;20085;-74
2021/03/27 10:44:25;;;;;;;2.63;0.50;;;;;;;16.19;35.26;100787.56;10334919;28;20036;-73
2021/03/27 10:49:26;;;;;;;1.98;0.60;;;;;;;17.31;33.23;100789.19;10344687;28;20152;-76
2021/03/27 10:54:49;;;;;;;2.80;0.80;;;;;;;17.74;31.22;100769.66;10357557;28;20094;-75
2021/03/27 11:00:27;;;;;;;3.30;1.02;;;;;;;17.39;31.29;100785.72;10353035;28;20195;-75
2021/03/27 11:05:58;;;;;;;3.67;0.80;;;;;;;14.63;34.96;100798.31;10355059;28;20496;-73
2021/03/27 11:11:13;;;;;;;2.55;1.02;;;;;;;12.97;38.78;100792.75;10364466;28;20503;-72
2021/03/27 11:16:46;;;;;;;4.40;1.30;;;;;;;12.54;39.84;100809.56;10342462;28;20139;-73
2021/03/27 11:22:12;;;;;;;1.98;0.90;;;;;;;12.80;39.87;100801.28;10316343;28;20058;-75
2021/03/27 11:27:47;;;;;;;2.88;1.08;;;;;;;12.54;38.60;100817.56;10335339;28;20081;-75
2021/03/27 11:32:56;;;;;;;4.50;1.00;;;;;;;12.70;37.32;100783.31;10396588;28;20030;-75
2021/03/27 11:38:23;;;;;;;2.95;0.90;;;;;;;13.35;36.91;100811.97;10370792;28;20046;-74
2021/03/27 11:43:41;;;;;;;4.72;0.80;;;;;;;12.32;38.21;100813.94;10357884;28;20056;-74
2021/03/27 11:49:07;;;;;;;2.90;1.13;;;;;;;11.96;39.79;100815.00;10356328;28;20531;-75
2021/03/27 11:54:42;;;;;;;4.45;0.90;;;;;;;11.72;39.83;100829.22;10347814;28;20474;-74
2021/03/27 12:05:24;;;;;;;2.10;0.80;;;;;;;11.57;39.75;100828.56;10342574;28;19978;-73
2021/03/27 12:10:50;;;;;;;4.63;1.53;;;;;;;12.21;37.67;100821.94;10346360;28;20468;-75
2021/03/27 12:16:10;;;;;;;3.17;0.60;;;;;;;12.29;37.66;100853.38;10334359;28;20065;-72
2021/03/27 12:21:23;;;;;;;1.55;0.65;;;;;;;12.52;36.55;100840.88;10333495;28;20058;-74
2021/03/27 12:26:27;;;;;;;1.88;0.70;;;;;;;12.44;36.33;100854.81;10348203;28;20065;-73
2021/03/27 12:31:49;;;;;;;3.28;0.93;;;;;;;16.35;30.12;100837.13;10340929;28;20060;-71
2021/03/27 12:36:53;;;;;;;3.15;1.02;;;;;;;16.33;30.02;100841.81;10342949;28;20108;-70
2021/03/27 12:41:54;;;;;;;3.38;1.10;;;;;;;14.91;32.00;100849.47;10349606;28;20045;-71
2021/03/27 12:47:19;;;;;;;4.70;1.15;;;;;;;16.64;28.96;100861.19;10336499;28;20064;-71
2021/03/27 12:52:44;;;;;;;3.40;0.85;;;;;;;13.35;34.81;100860.94;10353528;28;20050;-70
2021/03/27 12:57:58;;;;;;;3.83;1.25;;;;;;;12.35;37.31;100867.06;10361598;28;20144;-70
2021/03/27 13:03:35;;;;;;;2.78;1.10;;;;;;;12.63;37.59;100854.22;10345544;28;20452;-72
2021/03/27 13:08:39;;;;;;;3.67;1.30;;;;;;;11.97;38.33;100844.22;10351813;28;20145;-72
2021/03/27 13:13:49;;;;;;;2.72;1.00;;;;;;;12.31;40.42;100865.63;10340812;28;20605;-72
2021/03/27 13:18:55;;;;;;;3.63;1.20;;;;;;;14.76;37.07;100849.00;10353704;28;20496;-73
2021/03/27 13:24:18;;;;;;;3.17;0.95;;;;;;;13.97;37.01;100859.28;10340030;28;20067;-71
2021/03/27 13:29:34;;;;;;;3.70;0.90;;;;;;;12.40;38.12;100874.75;10355382;28;20049;-72
2021/03/27 13:34:42;;;;;;;3.67;1.85;;;;;;;11.74;47.55;100882.44;10337447;28;20664;-75
2021/03/27 13:39:51;;;;;;;3.58;0.90;;;;;;;11.26;40.82;100929.47;10351933;28;20086;-72
2021/03/27 13:45:01;;;;;;;2.83;0.70;;;;;;;10.41;52.70;100969.19;10353312;28;20034;-74
2021/03/27 13:50:21;;;;;;;2.97;0.73;;;;;;;8.84;59.75;100946.53;10357457;28;20085;-74
2021/03/27 13:55:35;;;;;;;3.20;0.88;;;;;;;8.73;62.29;100964.91;10353845;28;20042;-74
2021/03/27 14:00:48;;;;;;;2.20;0.98;;;;;;;8.66;62.61;100987.47;10353656;28;20049;-73
2021/03/27 14:06:09;;;;;;;2.72;0.65;;;;;;;8.39;63.76;100998.78;10346330;28;20045;-73
2021/03/27 14:11:26;;;;;;;1.65;0.80;;;;;;;8.33;63.73;101020.34;10341869;28;20076;-72
2021/03/27 14:16:32;;;;;;;1.52;0.55;;;;;;;8.53;63.37;101020.97;10340891;28;20053;-77
2021/03/27 14:21:59;;;;;;;1.55;0.40;;;;;;;8.56;62.62;100999.59;10355410;28;20168;-72
2021/03/27 14:27:53;;;;;;;1.25;0.47;;;;;;;8.63;61.72;101003.56;10334140;28;20058;-72
2021/03/27 14:33:11;;;;;;;3.80;0.50;;;;;;;8.75;59.15;101010.81;10350153;28;20053;-70
2021/03/27 14:38:46;;;;;;;1.10;0.40;;;;;;;9.74;56.71;100991.31;10343860;28;20061;-73
2021/03/27 14:44:12;;;;;;;2.28;0.70;;;;;;;9.69;56.43;101001.41;10335135;28;20046;-74
2021/03/27 14:49:42;;;;;;;1.00;0.40;;;;;;;9.48;56.63;100993.88;10346435;28;20096;-75
2021/03/27 14:55:04;;;;;;;1.67;0.57;;;;;;;9.33;55.77;100992.19;10322494;28;20082;-73
2021/03/27 15:00:20;;;;;;;2.15;0.40;;;;;;;9.27;53.25;100989.94;10345364;28;20077;-74
2021/03/27 15:05:29;;;;;;;1.58;0.32;;;;;;;8.97;53.17;100999.72;10344892;28;20446;-73
2021/03/27 15:10:45;;;;;;;2.17;0.60;;;;;;;8.97;53.61;101006.84;10351341;28;20046;-73
2021/03/27 15:15:57;;;;;;;1.42;0.75;;;;;;;9.14;53.95;101006.66;10344638;28;20073;-73
2021/03/27 15:20:58;;;;;;;3.55;1.50;;;;;;;9.21;53.96;100999.13;10342696;28;20057;-73
2021/03/27 15:31:38;;;;;;;3.08;0.90;;;;;;;9.70;52.45;101024.41;10353118;28;20467;-75
2021/03/27 15:37:03;;;;;;;2.75;0.93;;;;;;;9.62;51.80;101034.66;10346208;28;20567;-74
2021/03/27 15:42:25;;;;;;;4.80;1.00;;;;;;;9.60;52.63;101039.22;10327288;28;20415;-73
2021/03/27 15:47:40;;;;;;;3.70;0.80;;;;;;;9.72;51.80;101038.44;10341664;28;20045;-72
2021/03/27 15:53:03;;;;;;;2.15;0.57;;;;;;;9.75;51.80;101038.25;10350067;28;20105;-74
2021/03/27 15:58:30;;;;;;;3.33;0.80;;;;;;;9.67;52.48;101040.56;10381484;28;20476;-73
2021/03/27 16:03:42;;;;;;;4.18;1.05;;;;;;;9.66;51.49;101054.78;10348439;28;20053;-73
2021/03/27 16:08:56;;;;;;;1.95;0.85;;;;;;;9.85;50.89;101051.81;10328615;28;20053;-74
2021/03/27 16:14:46;;;;;;;1.98;0.70;;;;;;;9.81;50.48;101059.09;10336728;28;20053;-74
2021/03/27 16:20:05;;;;;;;4.40;0.88;;;;;;;9.66;50.46;101054.78;10355584;28;20504;-73
2021/03/27 16:25:25;;;;;;;2.75;0.77;;;;;;;9.48;49.77;101078.91;10351645;28;20058;-73
2021/03/27 16:30:54;;;;;;;4.50;1.00;;;;;;;9.53;50.55;101079.50;10355053;28;20199;-74
2021/03/27 16:36:03;;;;;;;3.97;1.83;;;;;;;9.50;49.44;101077.03;10354108;28;20061;-71
2021/03/27 16:41:04;;;;;;;2.90;0.82;;;;;;;9.50;49.61;101085.00;10339023;28;20202;-74
2021/03/27 16:46:14;;;;;;;1.67;0.98;;;;;;;9.42;50.61;101089.94;10353569;28;20478;-75
2021/03/27 16:51:25;;;;;;;1.92;0.68;;;;;;;9.37;49.92;101089.38;10316823;28;20038;-78
2021/03/27 16:56:31;;;;;;;2.85;0.52;;;;;;;9.39;49.90;101100.75;10351019;28;20069;-74
2021/03/27 17:01:43;;;;;;;2.83;0.82;;;;;;;9.22;50.25;101092.94;10338480;28;20049;-73
2021/03/27 17:07:16;;;;;;;2.15;1.23;;;;;;;9.19;50.65;101105.50;10331750;28;20123;-76
2021/03/27 17:12:17;;;;;;;5.18;2.65;;;;;;;8.97;50.75;101110.41;10328160;28;20101;-74
2021/03/27 17:17:27;;;;;;;1.50;0.70;;;;;;;8.77;51.05;101103.63;10338569;28;20104;-75
2021/03/27 17:22:44;;;;;;;3.63;1.58;;;;;;;8.89;51.14;101115.28;10349352;28;20053;-73
2021/03/27 17:28:10;;;;;;;1.42;0.60;;;;;;;8.88;51.78;101116.25;10355918;28;20112;-76
2021/03/27 17:33:34;;;;;;;1.77;1.02;;;;;;;8.80;53.10;101130.84;10353196;28;20065;-73
2021/03/27 17:38:46;;;;;;;2.65;1.20;;;;;;;8.61;54.08;101132.88;10341304;28;20101;-74
2021/03/27 17:44:12;;;;;;;2.95;1.00;;;;;;;8.67;53.73;101145.78;10337121;28;20050;-77
2021/03/27 17:49:50;;;;;;;2.55;0.85;;;;;;;8.63;53.81;101166.34;10355811;28;20053;-75
2021/03/27 17:55:03;;;;;;;2.40;0.90;;;;;;;8.54;54.54;101173.97;10351744;28;20133;-74
2021/03/27 18:00:36;;;;;;;2.03;1.13;;;;;;;8.57;54.46;101185.28;10359666;28;20050;-76
2021/03/27 18:05:44;;;;;;;3.05;1.30;;;;;;;8.31;55.31;101198.16;10354083;28;20415;-73
2021/03/27 18:10:47;;;;;;;3.25;1.20;;;;;;;8.25;55.38;101214.44;10354488;28;20096;-73
2021/03/27 18:16:02;;;;;;;1.30;0.90;;;;;;;8.20;55.24;101199.72;10357254;28;20104;-74
2021/03/27 18:21:22;;;;;;;;;;;;;;;8.30;55.48;101223.00;10357508;28;20140;-73
2021/03/27 18:26:30;;;;;;;1.98;0.88;;;;;;;8.16;56.29;101228.19;10357715;28;19922;-73
2021/03/27 18:31:51;;;;;;;3.45;1.70;;;;;;;8.09;56.42;101227.69;10337855;28;20061;-74
2021/03/27 18:36:57;;;;;;;2.63;1.27;;;;;;;7.99;57.03;101244.16;10352771;28;20503;-73
2021/03/27 18:42:36;;;;;;;3.22;1.20;;;;;;;7.98;57.69;101256.56;10355913;28;20510;-74
2021/03/27 18:47:42;;;;;;;3.97;1.40;;;;;;;8.01;58.54;101263.50;10270570;28;20100;-74
2021/03/27 18:52:43;;;;;;;2.72;1.83;;;;;;;8.07;58.98;101264.03;10355423;28;20474;-71
2021/03/27 18:57:48;;;;;;;5.55;2.17;;;;;;;8.16;58.86;101267.13;10338375;28;20045;-72
2021/03/27 19:02:57;;;;;;;3.22;1.60;;;;;;;8.04;59.44;101273.97;10340856;28;20096;-72
2021/03/27 19:08:05;;;;;;;6.60;3.38;;;;;;;8.02;59.54;101266.09;10352830;28;20136;-73
2021/03/27 19:13:13;;;;;;;4.57;2.20;;;;;;;8.13;59.75;101289.38;10353801;28;20125;-71
2021/03/27 19:18:23;;;;;;;5.38;1.67;;;;;;;8.13;60.21;101295.50;10336073;28;20147;-71
2021/03/27 19:23:31;;;;;;;4.57;2.10;;;;;;;8.03;60.79;101290.78;10352218;28;20144;-71
2021/03/27 19:28:34;;;;;;;6.05;2.20;;;;;;;7.98;61.96;101301.66;10353815;28;20065;-73
2021/03/27 19:33:35;;;;;;;5.45;2.72;;;;;;;7.83;62.57;101295.34;10357815;28;20504;-73
2021/03/27 19:38:39;;;;;;;6.43;2.08;;;;;;;7.78;63.14;101308.00;10334024;28;20045;-72
2021/03/27 19:43:54;;;;;;;4.18;2.50;;;;;;;7.71;63.72;101307.44;10357476;28;20054;-73
2021/03/27 19:49:10;;;;;;;4.78;2.50;;;;;;;7.85;63.24;101312.06;10355127;28;20622;-72
2021/03/27 19:54:37;;;;;;;5.75;2.33;;;;;;;7.94;62.55;101326.59;10359309;28;20065;-75
2021/03/27 20:00:04;;;;;;;6.00;2.08;;;;;;;7.92;62.39;101328.47;10338429;28;20161;-74
2021/03/27 20:05:22;;;;;;;5.20;3.00;;;;;;;7.98;62.22;101325.50;10352645;28;20101;-73
2021/03/27 20:10:44;;;;;;;4.63;2.78;;;;;;;7.92;61.92;101324.03;10352827;28;20173;-73
2021/03/27 20:15:51;;;;;;;8.13;3.60;;;;;;;7.96;62.26;101338.00;10349408;28;20461;-71
2021/03/27 20:21:16;;;;;;;7.72;3.47;;;;;;;7.96;62.75;101340.66;10348405;28;20072;-74
2021/03/27 20:26:31;;;;;;;9.90;2.95;;;;;;;7.81;62.86;101338.78;10358056;28;20046;-76
2021/03/27 20:32:09;;;;;;;3.87;2.83;;;;;;;7.92;62.34;101344.41;10350805;28;20530;-74
2021/03/27 20:37:25;;;;;;;3.95;2.45;;;;;;;7.79;61.96;101339.72;10358076;28;20521;-74
2021/03/27 20:42:25;;;;;;;;;;;;;;;7.71;62.15;101365.75;10355479;28;20463;-74
2021/03/27 20:47:52;;;;;;;8.57;4.38;;;;;;;7.65;62.49;101365.22;10349921;28;19952;-73
2021/03/27 20:53:16;;;;;;;4.07;1.92;;;;;;;7.66;62.46;101364.28;10353338;28;20046;-74
2021/03/27 20:58:32;;;;;;;5.18;2.55;;;;;;;7.72;62.19;101375.44;10354442;28;20576;-74
2021/03/27 21:03:59;;;;;;;8.07;3.10;;;;;;;7.72;62.36;101371.94;10337864;28;20041;-73
2021/03/27 21:09:11;;;;;;;6.60;2.72;;;;;;;7.60;62.68;101376.06;10353260;28;20069;-75
2021/03/27 21:14:16;;;;;;;4.80;2.55;;;;;;;7.53;63.55;101387.88;10344361;28;20400;-75
2021/03/27 21:19:47;;;;;;;7.18;2.78;;;;;;;7.61;63.25;101388.34;10359360;28;20085;-74
2021/03/27 21:25:00;;;;;;;5.05;2.63;;;;;;;7.59;63.45;101390.22;10357709;28;20052;-73
2021/03/27 21:30:39;;;;;;;7.82;2.50;;;;;;;7.49;64.14;101400.44;10336134;28;20050;-75
2021/03/27 21:35:55;;;;;;;5.05;2.47;;;;;;;7.61;63.99;101399.81;10363698;28;20466;-73
2021/03/27 21:40:57;;;;;;;5.45;2.78;;;;;;;7.58;64.26;101399.09;10342473;28;20132;-73
2021/03/27 21:46:29;;;;;;;7.00;3.25;;;;;;;7.53;63.70;101394.03;10358290;28;20145;-74
2021/03/27 21:51:54;;;;;;;6.20;3.40;;;;;;;7.52;64.44;101404.72;10352564;28;20145;-73
2021/03/27 21:57:26;;;;;;;7.85;4.10;;;;;;;7.51;64.15;101401.22;10359974;28;20133;-74
2021/03/27 22:02:31;;;;;;;5.68;3.35;;;;;;;7.53;64.17;101422.34;10356510;28;20075;-74
2021/03/27 22:07:52;;;;;;;6.43;3.00;;;;;;;7.51;64.22;101421.56;10348162;28;20069;-74
2021/03/27 22:12:59;;;;;;;7.95;3.58;;;;;;;7.60;64.17;101431.69;10344108;28;20073;-74
2021/03/27 22:18:11;;;;;;;4.47;3.25;;;;;;;7.64;63.63;101430.63;10353178;28;20071;-73
2021/03/27 22:23:37;;;;;;;6.68;3.00;;;;;;;7.67;63.35;101441.06;10362566;28;20133;-74
2021/03/27 22:28:59;;;;;;;7.55;3.30;;;;;;;7.69;63.14;101433.91;10330948;28;20136;-75
2021/03/27 22:34:16;;;;;;;7.50;3.47;;;;;;;7.59;63.03;101409.63;10357711;28;20492;-75
2021/03/27 22:39:26;;;;;;;4.30;2.92;;;;;;;7.64;63.35;101430.63;10353986;28;20189;-75
2021/03/27 22:44:48;;;;;;;8.05;3.35;;;;;;;7.57;63.44;101430.06;10364983;28;20113;-74
2021/03/27 22:50:19;;;;;;;6.72;3.72;;;;;;;7.56;63.43;101432.78;10352970;28;20812;-75
2021/03/27 22:55:32;;;;;;;5.30;3.22;;;;;;;7.48;63.73;101438.47;10336120;28;20129;-75
2021/03/27 23:00:47;;;;;;;5.55;3.10;;;;;;;7.52;63.92;101439.16;10355029;28;20061;-74
2021/03/27 23:05:55;;;;;;;6.13;3.38;;;;;;;7.59;63.55;101449.38;10347487;28;20471;-72
2021/03/27 23:11:07;;;;;;;6.43;3.83;;;;;;;7.52;64.00;101441.81;10347007;28;20077;-74
2021/03/27 23:16:14;;;;;;;6.55;3.47;;;;;;;7.50;63.94;101430.44;10334301;28;20136;-75
2021/03/27 23:21:42;;;;;;;4.85;2.90;;;;;;;7.48;63.51;101416.41;10341551;28;20144;-72
2021/03/27 23:27:11;;;;;;;5.95;3.47;;;;;;;7.58;63.46;101425.59;10327347;28;20058;-73
2021/03/27 23:32:19;;;;;;;6.88;3.53;;;;;;;7.54;63.38;101416.13;10335740;28;20529;-71
2021/03/27 23:37:36;;;;;;;6.10;3.35;;;;;;;7.61;63.43;101428.09;10345432;28;20076;-72
2021/03/27 23:42:55;;;;;;;5.30;3.05;;;;;;;7.60;63.47;101414.00;10340199;28;20046;-72
2021/03/27 23:48:30;;;;;;;8.20;4.30;;;;;;;7.57;63.89;101423.91;10347365;28;20100;-73
2021/03/27 23:53:37;;;;;;;5.23;3.50;;;;;;;7.56;63.53;101422.19;10345020;28;20054;-73
2021/03/27 23:58:50;;;;;;;6.22;3.22;;;;;;;7.56;63.70;101433.63;10329953;28;20145;-71
